sensor_id;sensor_type;location;lat;lon;timestamp;P1;durP1;ratioP1;P2;durP2;ratioP2
62123;SDS011;48110;47.532;19.078;2023-07-22T00:01:13;9.32;;;6.15;;
62123;SDS011;48110;47.532;19.078;2023-07-22T00:04:17;7.70;;;6.15;;
62123;SDS011;48110;47.532;19.078;2023-07-22T00:07:19;7.90;;;6.28;;
62123;SDS011;48110;47.532;19.078;2023-07-22T00:10:22;12.73;;;6.72;;
62123;SDS011;48110;47.532;19.078;2023-07-22T00:13:25;9.57;;;6.82;;
62123;SDS011;48110;47.532;19.078;2023-07-22T00:16:29;9.32;;;6.45;;
62123;SDS011;48110;47.532;19.078;2023-07-22T00:19:32;9.93;;;6.47;;
62123;SDS011;48110;47.532;19.078;2023-07-22T00:22:37;9.02;;;6.22;;
62123;SDS011;48110;47.532;19.078;2023-07-22T00:25:42;8.63;;;6.22;;
62123;SDS011;48110;47.532;19.078;2023-07-22T00:28:45;8.02;;;5.50;;
62123;SDS011;48110;47.532;19.078;2023-07-22T00:31:48;10.70;;;5.65;;
62123;SDS011;48110;47.532;19.078;2023-07-22T00:34:52;8.98;;;5.40;;
62123;SDS011;48110;47.532;19.078;2023-07-22T00:37:54;8.10;;;5.85;;
62123;SDS011;48110;47.532;19.078;2023-07-22T00:40:58;7.78;;;5.82;;
62123;SDS011;48110;47.532;19.078;2023-07-22T00:44:01;8.30;;;5.53;;
62123;SDS011;48110;47.532;19.078;2023-07-22T00:47:04;9.55;;;5.87;;
62123;SDS011;48110;47.532;19.078;2023-07-22T00:50:08;9.88;;;6.45;;
62123;SDS011;48110;47.532;19.078;2023-07-22T00:53:12;8.00;;;5.90;;
62123;SDS011;48110;47.532;19.078;2023-07-22T00:56:15;11.88;;;5.78;;
62123;SDS011;48110;47.532;19.078;2023-07-22T00:59:18;10.50;;;6.10;;
62123;SDS011;48110;47.532;19.078;2023-07-22T01:02:22;8.27;;;5.90;;
62123;SDS011;48110;47.532;19.078;2023-07-22T01:05:26;8.75;;;6.00;;
62123;SDS011;48110;47.532;19.078;2023-07-22T01:08:30;10.20;;;6.05;;
62123;SDS011;48110;47.532;19.078;2023-07-22T01:11:33;9.10;;;5.28;;
62123;SDS011;48110;47.532;19.078;2023-07-22T01:14:37;10.98;;;5.90;;
62123;SDS011;48110;47.532;19.078;2023-07-22T01:17:41;7.22;;;5.45;;
62123;SDS011;48110;47.532;19.078;2023-07-22T01:20:45;6.75;;;5.60;;
62123;SDS011;48110;47.532;19.078;2023-07-22T01:23:49;12.55;;;5.80;;
62123;SDS011;48110;47.532;19.078;2023-07-22T01:26:52;11.00;;;5.30;;
62123;SDS011;48110;47.532;19.078;2023-07-22T01:29:56;6.20;;;5.40;;
62123;SDS011;48110;47.532;19.078;2023-07-22T01:32:58;7.35;;;5.30;;
62123;SDS011;48110;47.532;19.078;2023-07-22T01:36:02;9.98;;;5.55;;
62123;SDS011;48110;47.532;19.078;2023-07-22T01:39:05;9.70;;;5.55;;
62123;SDS011;48110;47.532;19.078;2023-07-22T01:42:08;9.95;;;5.97;;
62123;SDS011;48110;47.532;19.078;2023-07-22T01:45:11;7.72;;;5.78;;
62123;SDS011;48110;47.532;19.078;2023-07-22T01:48:15;7.55;;;5.62;;
62123;SDS011;48110;47.532;19.078;2023-07-22T01:51:18;11.35;;;6.57;;
62123;SDS011;48110;47.532;19.078;2023-07-22T01:54:21;10.15;;;6.50;;
62123;SDS011;48110;47.532;19.078;2023-07-22T01:57:24;8.13;;;6.05;;
62123;SDS011;48110;47.532;19.078;2023-07-22T02:00:27;8.30;;;5.30;;
62123;SDS011;48110;47.532;19.078;2023-07-22T02:03:31;10.10;;;5.65;;
62123;SDS011;48110;47.532;19.078;2023-07-22T02:06:34;8.10;;;5.90;;
62123;SDS011;48110;47.532;19.078;2023-07-22T02:09:37;7.43;;;5.72;;
62123;SDS011;48110;47.532;19.078;2023-07-22T02:12:40;7.82;;;6.40;;
62123;SDS011;48110;47.532;19.078;2023-07-22T02:15:43;8.73;;;6.15;;
62123;SDS011;48110;47.532;19.078;2023-07-22T02:18:46;8.30;;;6.00;;
62123;SDS011;48110;47.532;19.078;2023-07-22T02:21:50;10.57;;;6.37;;
62123;SDS011;48110;47.532;19.078;2023-07-22T02:24:53;10.63;;;6.75;;
62123;SDS011;48110;47.532;19.078;2023-07-22T02:27:56;8.63;;;6.22;;
62123;SDS011;48110;47.532;19.078;2023-07-22T02:31:00;10.20;;;6.40;;
62123;SDS011;48110;47.532;19.078;2023-07-22T02:34:06;11.60;;;6.28;;
62123;SDS011;48110;47.532;19.078;2023-07-22T02:37:09;7.62;;;5.60;;
62123;SDS011;48110;47.532;19.078;2023-07-22T02:40:12;10.50;;;6.12;;
62123;SDS011;48110;47.532;19.078;2023-07-22T02:43:15;9.93;;;5.90;;
62123;SDS011;48110;47.532;19.078;2023-07-22T02:46:18;6.57;;;5.40;;
62123;SDS011;48110;47.532;19.078;2023-07-22T02:49:21;11.25;;;6.22;;
62123;SDS011;48110;47.532;19.078;2023-07-22T02:52:24;8.65;;;6.10;;
62123;SDS011;48110;47.532;19.078;2023-07-22T02:55:27;7.30;;;6.07;;
62123;SDS011;48110;47.532;19.078;2023-07-22T02:58:30;7.93;;;5.43;;
62123;SDS011;48110;47.532;19.078;2023-07-22T03:01:34;9.57;;;5.40;;
62123;SDS011;48110;47.532;19.078;2023-07-22T03:04:36;14.05;;;5.45;;
62123;SDS011;48110;47.532;19.078;2023-07-22T03:07:40;9.70;;;5.85;;
62123;SDS011;48110;47.532;19.078;2023-07-22T03:10:43;7.90;;;5.35;;
62123;SDS011;48110;47.532;19.078;2023-07-22T03:13:51;9.50;;;5.72;;
62123;SDS011;48110;47.532;19.078;2023-07-22T03:16:54;8.15;;;6.05;;
62123;SDS011;48110;47.532;19.078;2023-07-22T03:19:57;9.95;;;6.20;;
62123;SDS011;48110;47.532;19.078;2023-07-22T03:23:00;8.30;;;6.10;;
62123;SDS011;48110;47.532;19.078;2023-07-22T03:26:04;8.38;;;5.93;;
62123;SDS011;48110;47.532;19.078;2023-07-22T03:29:07;7.62;;;6.00;;
62123;SDS011;48110;47.532;19.078;2023-07-22T03:32:11;9.02;;;6.10;;
62123;SDS011;48110;47.532;19.078;2023-07-22T03:35:13;9.48;;;5.97;;
62123;SDS011;48110;47.532;19.078;2023-07-22T03:38:17;8.77;;;6.12;;
62123;SDS011;48110;47.532;19.078;2023-07-22T03:41:19;7.15;;;5.62;;
62123;SDS011;48110;47.532;19.078;2023-07-22T03:44:23;6.62;;;5.40;;
62123;SDS011;48110;47.532;19.078;2023-07-22T03:47:26;10.55;;;6.30;;
62123;SDS011;48110;47.532;19.078;2023-07-22T03:50:30;8.95;;;5.97;;
62123;SDS011;48110;47.532;19.078;2023-07-22T03:53:32;8.27;;;6.57;;
62123;SDS011;48110;47.532;19.078;2023-07-22T03:56:36;14.87;;;6.50;;
62123;SDS011;48110;47.532;19.078;2023-07-22T03:59:39;7.68;;;5.87;;
62123;SDS011;48110;47.532;19.078;2023-07-22T04:02:43;8.82;;;5.93;;
62123;SDS011;48110;47.532;19.078;2023-07-22T04:05:56;12.77;;;5.93;;
62123;SDS011;48110;47.532;19.078;2023-07-22T04:08:59;7.45;;;5.60;;
62123;SDS011;48110;47.532;19.078;2023-07-22T04:12:03;11.38;;;6.40;;
62123;SDS011;48110;47.532;19.078;2023-07-22T04:15:06;8.65;;;5.97;;
62123;SDS011;48110;47.532;19.078;2023-07-22T04:18:09;12.07;;;5.95;;
62123;SDS011;48110;47.532;19.078;2023-07-22T04:21:12;8.20;;;5.80;;
62123;SDS011;48110;47.532;19.078;2023-07-22T04:24:16;10.18;;;6.00;;
62123;SDS011;48110;47.532;19.078;2023-07-22T04:27:18;9.13;;;6.37;;
62123;SDS011;48110;47.532;19.078;2023-07-22T04:30:22;10.65;;;6.70;;
62123;SDS011;48110;47.532;19.078;2023-07-22T04:33:28;9.68;;;7.00;;
62123;SDS011;48110;47.532;19.078;2023-07-22T04:36:31;8.95;;;5.25;;
62123;SDS011;48110;47.532;19.078;2023-07-22T04:39:34;7.45;;;5.50;;
62123;SDS011;48110;47.532;19.078;2023-07-22T04:42:38;6.70;;;4.90;;
62123;SDS011;48110;47.532;19.078;2023-07-22T04:45:41;7.15;;;4.57;;
62123;SDS011;48110;47.532;19.078;2023-07-22T04:48:44;9.10;;;4.53;;
62123;SDS011;48110;47.532;19.078;2023-07-22T04:51:47;7.53;;;4.00;;
62123;SDS011;48110;47.532;19.078;2023-07-22T04:54:51;9.98;;;4.22;;
62123;SDS011;48110;47.532;19.078;2023-07-22T04:57:54;7.32;;;4.47;;
62123;SDS011;48110;47.532;19.078;2023-07-22T05:00:57;5.65;;;4.47;;
62123;SDS011;48110;47.532;19.078;2023-07-22T05:04:01;8.02;;;4.50;;
62123;SDS011;48110;47.532;19.078;2023-07-22T05:07:04;6.22;;;4.57;;
62123;SDS011;48110;47.532;19.078;2023-07-22T05:10:07;10.82;;;5.30;;
62123;SDS011;48110;47.532;19.078;2023-07-22T05:13:15;9.00;;;4.72;;
62123;SDS011;48110;47.532;19.078;2023-07-22T05:16:18;6.78;;;5.07;;
62123;SDS011;48110;47.532;19.078;2023-07-22T05:19:24;8.95;;;5.55;;
62123;SDS011;48110;47.532;19.078;2023-07-22T05:22:28;7.15;;;5.28;;
62123;SDS011;48110;47.532;19.078;2023-07-22T05:25:32;10.40;;;5.10;;
62123;SDS011;48110;47.532;19.078;2023-07-22T05:28:35;7.95;;;5.35;;
62123;SDS011;48110;47.532;19.078;2023-07-22T05:31:38;7.43;;;5.35;;
62123;SDS011;48110;47.532;19.078;2023-07-22T05:34:41;7.68;;;5.90;;
62123;SDS011;48110;47.532;19.078;2023-07-22T05:37:44;8.38;;;5.60;;
62123;SDS011;48110;47.532;19.078;2023-07-22T05:40:47;16.45;;;5.93;;
62123;SDS011;48110;47.532;19.078;2023-07-22T05:43:51;15.35;;;6.03;;
62123;SDS011;48110;47.532;19.078;2023-07-22T05:46:54;8.27;;;5.50;;
62123;SDS011;48110;47.532;19.078;2023-07-22T05:49:57;10.95;;;5.55;;
62123;SDS011;48110;47.532;19.078;2023-07-22T05:53:00;8.73;;;5.62;;
62123;SDS011;48110;47.532;19.078;2023-07-22T05:56:04;9.30;;;5.93;;
62123;SDS011;48110;47.532;19.078;2023-07-22T05:59:07;7.00;;;5.50;;
62123;SDS011;48110;47.532;19.078;2023-07-22T06:02:12;7.25;;;5.43;;
62123;SDS011;48110;47.532;19.078;2023-07-22T06:05:16;7.85;;;5.30;;
62123;SDS011;48110;47.532;19.078;2023-07-22T06:08:19;8.70;;;5.68;;
62123;SDS011;48110;47.532;19.078;2023-07-22T06:11:22;11.45;;;5.65;;
62123;SDS011;48110;47.532;19.078;2023-07-22T06:14:25;8.15;;;5.47;;
62123;SDS011;48110;47.532;19.078;2023-07-22T06:17:31;9.70;;;5.40;;
62123;SDS011;48110;47.532;19.078;2023-07-22T06:20:34;9.50;;;5.57;;
62123;SDS011;48110;47.532;19.078;2023-07-22T06:23:38;9.15;;;5.50;;
62123;SDS011;48110;47.532;19.078;2023-07-22T06:26:41;7.30;;;5.37;;
62123;SDS011;48110;47.532;19.078;2023-07-22T06:29:44;9.43;;;5.35;;
62123;SDS011;48110;47.532;19.078;2023-07-22T06:32:47;9.27;;;5.32;;
62123;SDS011;48110;47.532;19.078;2023-07-22T06:35:50;9.35;;;5.30;;
62123;SDS011;48110;47.532;19.078;2023-07-22T06:38:55;6.70;;;4.57;;
62123;SDS011;48110;47.532;19.078;2023-07-22T06:41:59;7.00;;;4.82;;
62123;SDS011;48110;47.532;19.078;2023-07-22T06:45:02;6.50;;;4.40;;
62123;SDS011;48110;47.532;19.078;2023-07-22T06:48:06;9.45;;;4.87;;
62123;SDS011;48110;47.532;19.078;2023-07-22T06:51:09;7.03;;;4.40;;
62123;SDS011;48110;47.532;19.078;2023-07-22T06:54:12;7.07;;;4.57;;
62123;SDS011;48110;47.532;19.078;2023-07-22T06:57:15;7.03;;;4.87;;
62123;SDS011;48110;47.532;19.078;2023-07-22T07:00:18;9.00;;;5.10;;
62123;SDS011;48110;47.532;19.078;2023-07-22T07:03:22;11.10;;;4.80;;
62123;SDS011;48110;47.532;19.078;2023-07-22T07:06:26;9.27;;;4.90;;
62123;SDS011;48110;47.532;19.078;2023-07-22T07:09:28;9.15;;;4.72;;
62123;SDS011;48110;47.532;19.078;2023-07-22T07:12:32;7.37;;;5.07;;
62123;SDS011;48110;47.532;19.078;2023-07-22T07:15:34;9.63;;;4.20;;
62123;SDS011;48110;47.532;19.078;2023-07-22T07:18:38;10.10;;;4.80;;
62123;SDS011;48110;47.532;19.078;2023-07-22T07:21:40;8.23;;;4.20;;
62123;SDS011;48110;47.532;19.078;2023-07-22T07:24:44;9.05;;;4.03;;
62123;SDS011;48110;47.532;19.078;2023-07-22T07:27:47;6.93;;;4.55;;
62123;SDS011;48110;47.532;19.078;2023-07-22T07:30:51;6.18;;;3.90;;
62123;SDS011;48110;47.532;19.078;2023-07-22T07:33:54;6.60;;;3.85;;
62123;SDS011;48110;47.532;19.078;2023-07-22T07:36:57;5.97;;;3.90;;
62123;SDS011;48110;47.532;19.078;2023-07-22T07:40:00;5.70;;;4.12;;
62123;SDS011;48110;47.532;19.078;2023-07-22T07:43:03;7.57;;;4.03;;
62123;SDS011;48110;47.532;19.078;2023-07-22T07:46:16;7.60;;;3.65;;
62123;SDS011;48110;47.532;19.078;2023-07-22T07:49:29;5.80;;;3.65;;
62123;SDS011;48110;47.532;19.078;2023-07-22T07:52:32;8.75;;;3.50;;
62123;SDS011;48110;47.532;19.078;2023-07-22T07:55:35;5.53;;;3.47;;
62123;SDS011;48110;47.532;19.078;2023-07-22T07:58:38;5.60;;;3.30;;
62123;SDS011;48110;47.532;19.078;2023-07-22T08:01:42;5.85;;;3.17;;
62123;SDS011;48110;47.532;19.078;2023-07-22T08:04:46;6.37;;;3.25;;
62123;SDS011;48110;47.532;19.078;2023-07-22T08:07:49;8.77;;;3.30;;
62123;SDS011;48110;47.532;19.078;2023-07-22T08:11:02;6.28;;;3.42;;
62123;SDS011;48110;47.532;19.078;2023-07-22T08:14:06;7.45;;;3.67;;
62123;SDS011;48110;47.532;19.078;2023-07-22T08:17:10;6.72;;;3.20;;
62123;SDS011;48110;47.532;19.078;2023-07-22T08:20:13;6.03;;;3.10;;
62123;SDS011;48110;47.532;19.078;2023-07-22T08:23:17;9.00;;;3.37;;
62123;SDS011;48110;47.532;19.078;2023-07-22T08:26:20;8.02;;;3.20;;
62123;SDS011;48110;47.532;19.078;2023-07-22T08:29:24;5.80;;;3.35;;
62123;SDS011;48110;47.532;19.078;2023-07-22T08:32:27;6.50;;;3.50;;
62123;SDS011;48110;47.532;19.078;2023-07-22T08:35:31;7.75;;;3.03;;
62123;SDS011;48110;47.532;19.078;2023-07-22T08:38:35;5.25;;;3.17;;
62123;SDS011;48110;47.532;19.078;2023-07-22T08:41:39;6.97;;;3.10;;
62123;SDS011;48110;47.532;19.078;2023-07-22T08:44:47;5.15;;;3.03;;
62123;SDS011;48110;47.532;19.078;2023-07-22T08:47:51;4.82;;;2.90;;
62123;SDS011;48110;47.532;19.078;2023-07-22T08:50:59;4.30;;;2.90;;
62123;SDS011;48110;47.532;19.078;2023-07-22T08:54:10;7.47;;;3.25;;
62123;SDS011;48110;47.532;19.078;2023-07-22T08:57:14;4.03;;;2.65;;
62123;SDS011;48110;47.532;19.078;2023-07-22T09:00:18;3.47;;;2.75;;
62123;SDS011;48110;47.532;19.078;2023-07-22T09:03:21;5.12;;;2.80;;
62123;SDS011;48110;47.532;19.078;2023-07-22T09:06:24;4.20;;;2.53;;
62123;SDS011;48110;47.532;19.078;2023-07-22T09:09:27;5.70;;;2.50;;
62123;SDS011;48110;47.532;19.078;2023-07-22T09:12:31;4.35;;;2.78;;
62123;SDS011;48110;47.532;19.078;2023-07-22T09:15:35;5.60;;;2.67;;
62123;SDS011;48110;47.532;19.078;2023-07-22T09:18:39;4.25;;;2.67;;
62123;SDS011;48110;47.532;19.078;2023-07-22T09:21:42;5.60;;;2.33;;
62123;SDS011;48110;47.532;19.078;2023-07-22T09:24:47;3.45;;;2.42;;
62123;SDS011;48110;47.532;19.078;2023-07-22T09:27:54;3.65;;;2.22;;
62123;SDS011;48110;47.532;19.078;2023-07-22T09:31:01;8.57;;;2.20;;
62123;SDS011;48110;47.532;19.078;2023-07-22T09:34:09;4.82;;;2.25;;
62123;SDS011;48110;47.532;19.078;2023-07-22T09:37:13;4.18;;;2.28;;
62123;SDS011;48110;47.532;19.078;2023-07-22T09:40:22;2.55;;;2.10;;
62123;SDS011;48110;47.532;19.078;2023-07-22T09:43:29;7.90;;;2.45;;
62123;SDS011;48110;47.532;19.078;2023-07-22T09:46:32;5.97;;;2.00;;
62123;SDS011;48110;47.532;19.078;2023-07-22T09:49:39;4.60;;;1.92;;
62123;SDS011;48110;47.532;19.078;2023-07-22T09:52:47;2.83;;;1.90;;
62123;SDS011;48110;47.532;19.078;2023-07-22T09:55:52;5.28;;;1.90;;
62123;SDS011;48110;47.532;19.078;2023-07-22T09:58:55;3.97;;;2.00;;
62123;SDS011;48110;47.532;19.078;2023-07-22T10:02:01;3.35;;;1.92;;
62123;SDS011;48110;47.532;19.078;2023-07-22T10:05:06;2.35;;;1.90;;
62123;SDS011;48110;47.532;19.078;2023-07-22T10:08:14;6.05;;;2.30;;
62123;SDS011;48110;47.532;19.078;2023-07-22T10:11:21;3.15;;;2.35;;
62123;SDS011;48110;47.532;19.078;2023-07-22T10:14:25;4.62;;;2.10;;
62123;SDS011;48110;47.532;19.078;2023-07-22T10:17:33;2.00;;;1.67;;
62123;SDS011;48110;47.532;19.078;2023-07-22T10:20:37;3.25;;;2.00;;
62123;SDS011;48110;47.532;19.078;2023-07-22T10:23:42;2.83;;;1.90;;
62123;SDS011;48110;47.532;19.078;2023-07-22T10:26:48;3.10;;;1.90;;
62123;SDS011;48110;47.532;19.078;2023-07-22T10:29:54;4.10;;;1.90;;
62123;SDS011;48110;47.532;19.078;2023-07-22T10:32:57;4.15;;;1.98;;
62123;SDS011;48110;47.532;19.078;2023-07-22T10:36:05;5.25;;;1.75;;
62123;SDS011;48110;47.532;19.078;2023-07-22T10:39:09;3.05;;;1.80;;
62123;SDS011;48110;47.532;19.078;2023-07-22T10:42:28;2.50;;;1.70;;
62123;SDS011;48110;47.532;19.078;2023-07-22T10:45:39;1.77;;;1.52;;
62123;SDS011;48110;47.532;19.078;2023-07-22T10:48:43;4.55;;;1.55;;
62123;SDS011;48110;47.532;19.078;2023-07-22T10:51:47;2.80;;;1.77;;
62123;SDS011;48110;47.532;19.078;2023-07-22T10:54:52;3.12;;;1.60;;
62123;SDS011;48110;47.532;19.078;2023-07-22T10:58:03;2.40;;;1.58;;
62123;SDS011;48110;47.532;19.078;2023-07-22T11:04:31;3.22;;;1.48;;
62123;SDS011;48110;47.532;19.078;2023-07-22T11:07:53;2.78;;;1.50;;
62123;SDS011;48110;47.532;19.078;2023-07-22T11:11:06;3.12;;;1.50;;
62123;SDS011;48110;47.532;19.078;2023-07-22T11:14:13;4.03;;;1.40;;
62123;SDS011;48110;47.532;19.078;2023-07-22T11:17:27;3.50;;;1.60;;
62123;SDS011;48110;47.532;19.078;2023-07-22T11:20:32;2.60;;;1.45;;
62123;SDS011;48110;47.532;19.078;2023-07-22T11:23:37;4.97;;;1.55;;
62123;SDS011;48110;47.532;19.078;2023-07-22T11:26:40;1.60;;;1.27;;
62123;SDS011;48110;47.532;19.078;2023-07-22T11:29:48;2.17;;;1.40;;
62123;SDS011;48110;47.532;19.078;2023-07-22T11:32:51;1.25;;;1.12;;
62123;SDS011;48110;47.532;19.078;2023-07-22T11:35:54;1.75;;;1.40;;
62123;SDS011;48110;47.532;19.078;2023-07-22T11:42:34;2.65;;;1.48;;
62123;SDS011;48110;47.532;19.078;2023-07-22T11:45:38;1.70;;;1.33;;
62123;SDS011;48110;47.532;19.078;2023-07-22T11:48:48;2.58;;;1.25;;
62123;SDS011;48110;47.532;19.078;2023-07-22T11:55:02;1.35;;;1.00;;
62123;SDS011;48110;47.532;19.078;2023-07-22T11:58:06;1.50;;;1.10;;
62123;SDS011;48110;47.532;19.078;2023-07-22T12:01:10;1.20;;;1.10;;
62123;SDS011;48110;47.532;19.078;2023-07-22T12:04:14;1.30;;;1.00;;
62123;SDS011;48110;47.532;19.078;2023-07-22T12:07:24;6.00;;;1.00;;
62123;SDS011;48110;47.532;19.078;2023-07-22T12:10:28;1.95;;;1.05;;
62123;SDS011;48110;47.532;19.078;2023-07-22T12:13:37;5.80;;;1.12;;
62123;SDS011;48110;47.532;19.078;2023-07-22T12:16:40;1.25;;;1.08;;
62123;SDS011;48110;47.532;19.078;2023-07-22T12:19:51;4.20;;;1.20;;
62123;SDS011;48110;47.532;19.078;2023-07-22T12:22:58;3.85;;;1.20;;
62123;SDS011;48110;47.532;19.078;2023-07-22T12:26:00;3.83;;;1.00;;
62123;SDS011;48110;47.532;19.078;2023-07-22T12:29:04;3.22;;;1.20;;
62123;SDS011;48110;47.532;19.078;2023-07-22T12:32:06;1.55;;;1.17;;
62123;SDS011;48110;47.532;19.078;2023-07-22T12:35:10;2.75;;;1.20;;
62123;SDS011;48110;47.532;19.078;2023-07-22T12:38:16;1.10;;;0.90;;
62123;SDS011;48110;47.532;19.078;2023-07-22T12:41:19;2.28;;;1.10;;
62123;SDS011;48110;47.532;19.078;2023-07-22T12:44:22;1.92;;;1.05;;
62123;SDS011;48110;47.532;19.078;2023-07-22T12:47:25;1.20;;;0.90;;
62123;SDS011;48110;47.532;19.078;2023-07-22T12:50:29;1.45;;;1.05;;
62123;SDS011;48110;47.532;19.078;2023-07-22T12:53:32;1.70;;;1.05;;
62123;SDS011;48110;47.532;19.078;2023-07-22T12:56:35;4.03;;;1.20;;
62123;SDS011;48110;47.532;19.078;2023-07-22T12:59:39;2.87;;;1.00;;
62123;SDS011;48110;47.532;19.078;2023-07-22T13:02:43;3.08;;;1.10;;
62123;SDS011;48110;47.532;19.078;2023-07-22T13:05:46;2.22;;;1.20;;
62123;SDS011;48110;47.532;19.078;2023-07-22T13:08:51;3.97;;;1.15;;
62123;SDS011;48110;47.532;19.078;2023-07-22T13:11:54;2.17;;;1.15;;
62123;SDS011;48110;47.532;19.078;2023-07-22T13:14:57;3.65;;;1.20;;
62123;SDS011;48110;47.532;19.078;2023-07-22T13:18:00;1.77;;;1.10;;
62123;SDS011;48110;47.532;19.078;2023-07-22T13:21:03;2.12;;;1.00;;
62123;SDS011;48110;47.532;19.078;2023-07-22T13:24:06;2.75;;;1.30;;
62123;SDS011;48110;47.532;19.078;2023-07-22T13:27:09;2.78;;;1.23;;
62123;SDS011;48110;47.532;19.078;2023-07-22T13:30:12;2.05;;;1.15;;
62123;SDS011;48110;47.532;19.078;2023-07-22T13:33:15;2.40;;;1.23;;
62123;SDS011;48110;47.532;19.078;2023-07-22T13:36:19;2.60;;;1.00;;
62123;SDS011;48110;47.532;19.078;2023-07-22T13:39:25;1.95;;;1.10;;
62123;SDS011;48110;47.532;19.078;2023-07-22T13:42:28;2.20;;;1.10;;
62123;SDS011;48110;47.532;19.078;2023-07-22T13:45:32;1.50;;;0.90;;
62123;SDS011;48110;47.532;19.078;2023-07-22T13:48:35;2.85;;;1.10;;
62123;SDS011;48110;47.532;19.078;2023-07-22T13:51:37;2.03;;;1.12;;
62123;SDS011;48110;47.532;19.078;2023-07-22T13:54:40;1.70;;;1.12;;
62123;SDS011;48110;47.532;19.078;2023-07-22T13:57:43;2.10;;;1.33;;
62123;SDS011;48110;47.532;19.078;2023-07-22T14:00:46;1.87;;;1.17;;
62123;SDS011;48110;47.532;19.078;2023-07-22T14:03:51;4.03;;;1.20;;
62123;SDS011;48110;47.532;19.078;2023-07-22T14:06:54;1.98;;;1.20;;
62123;SDS011;48110;47.532;19.078;2023-07-22T14:09:57;4.40;;;1.20;;
62123;SDS011;48110;47.532;19.078;2023-07-22T14:13:00;1.62;;;1.33;;
62123;SDS011;48110;47.532;19.078;2023-07-22T14:16:03;5.10;;;1.30;;
62123;SDS011;48110;47.532;19.078;2023-07-22T14:19:23;1.75;;;1.25;;
62123;SDS011;48110;47.532;19.078;2023-07-22T14:22:27;4.35;;;1.17;;
62123;SDS011;48110;47.532;19.078;2023-07-22T14:25:30;1.98;;;1.08;;
62123;SDS011;48110;47.532;19.078;2023-07-22T14:28:33;2.40;;;1.30;;
62123;SDS011;48110;47.532;19.078;2023-07-22T14:31:36;3.10;;;1.30;;
62123;SDS011;48110;47.532;19.078;2023-07-22T14:34:39;2.92;;;1.10;;
62123;SDS011;48110;47.532;19.078;2023-07-22T14:37:42;2.95;;;1.40;;
62123;SDS011;48110;47.532;19.078;2023-07-22T14:40:45;3.20;;;1.40;;
62123;SDS011;48110;47.532;19.078;2023-07-22T14:43:48;2.65;;;1.40;;
62123;SDS011;48110;47.532;19.078;2023-07-22T14:46:51;4.20;;;1.30;;
62123;SDS011;48110;47.532;19.078;2023-07-22T14:49:56;3.83;;;1.40;;
62123;SDS011;48110;47.532;19.078;2023-07-22T14:52:59;2.35;;;1.45;;
62123;SDS011;48110;47.532;19.078;2023-07-22T14:56:03;3.95;;;1.17;;
62123;SDS011;48110;47.532;19.078;2023-07-22T14:59:06;2.00;;;1.50;;
62123;SDS011;48110;47.532;19.078;2023-07-22T15:02:09;2.47;;;1.50;;
62123;SDS011;48110;47.532;19.078;2023-07-22T15:05:15;4.05;;;1.50;;
62123;SDS011;48110;47.532;19.078;2023-07-22T15:08:18;4.07;;;1.50;;
62123;SDS011;48110;47.532;19.078;2023-07-22T15:11:21;2.85;;;1.30;;
62123;SDS011;48110;47.532;19.078;2023-07-22T15:14:24;1.83;;;1.23;;
62123;SDS011;48110;47.532;19.078;2023-07-22T15:17:28;2.05;;;1.30;;
62123;SDS011;48110;47.532;19.078;2023-07-22T15:20:34;3.50;;;1.55;;
62123;SDS011;48110;47.532;19.078;2023-07-22T15:23:38;4.55;;;1.45;;
62123;SDS011;48110;47.532;19.078;2023-07-22T15:26:41;4.60;;;1.37;;
62123;SDS011;48110;47.532;19.078;2023-07-22T15:29:44;3.22;;;1.20;;
62123;SDS011;48110;47.532;19.078;2023-07-22T15:32:47;4.60;;;1.33;;
62123;SDS011;48110;47.532;19.078;2023-07-22T15:35:51;2.97;;;1.20;;
62123;SDS011;48110;47.532;19.078;2023-07-22T15:38:54;1.95;;;1.42;;
62123;SDS011;48110;47.532;19.078;2023-07-22T15:41:57;1.85;;;1.30;;
62123;SDS011;48110;47.532;19.078;2023-07-22T15:45:00;2.85;;;1.30;;
62123;SDS011;48110;47.532;19.078;2023-07-22T15:48:04;1.40;;;1.10;;
62123;SDS011;48110;47.532;19.078;2023-07-22T15:51:08;2.72;;;1.20;;
62123;SDS011;48110;47.532;19.078;2023-07-22T15:54:11;1.55;;;1.20;;
62123;SDS011;48110;47.532;19.078;2023-07-22T15:57:16;2.17;;;1.10;;
62123;SDS011;48110;47.532;19.078;2023-07-22T16:00:19;4.32;;;1.30;;
62123;SDS011;48110;47.532;19.078;2023-07-22T16:03:22;3.65;;;1.50;;
62123;SDS011;48110;47.532;19.078;2023-07-22T16:06:25;3.75;;;1.48;;
62123;SDS011;48110;47.532;19.078;2023-07-22T16:09:35;5.20;;;1.50;;
62123;SDS011;48110;47.532;19.078;2023-07-22T16:12:38;3.10;;;1.40;;
62123;SDS011;48110;47.532;19.078;2023-07-22T16:15:41;7.05;;;1.60;;
62123;SDS011;48110;47.532;19.078;2023-07-22T16:18:44;3.53;;;1.60;;
62123;SDS011;48110;47.532;19.078;2023-07-22T16:21:47;3.20;;;1.42;;
62123;SDS011;48110;47.532;19.078;2023-07-22T16:24:50;4.00;;;1.50;;
62123;SDS011;48110;47.532;19.078;2023-07-22T16:27:53;2.28;;;1.37;;
62123;SDS011;48110;47.532;19.078;2023-07-22T16:30:56;2.28;;;1.48;;
62123;SDS011;48110;47.532;19.078;2023-07-22T16:33:59;3.17;;;1.40;;
62123;SDS011;48110;47.532;19.078;2023-07-22T16:37:04;4.93;;;1.67;;
62123;SDS011;48110;47.532;19.078;2023-07-22T16:40:07;2.80;;;1.60;;
62123;SDS011;48110;47.532;19.078;2023-07-22T16:43:13;1.92;;;1.35;;
62123;SDS011;48110;47.532;19.078;2023-07-22T16:46:16;3.55;;;1.52;;
62123;SDS011;48110;47.532;19.078;2023-07-22T16:49:19;3.97;;;1.55;;
62123;SDS011;48110;47.532;19.078;2023-07-22T16:52:22;6.00;;;1.60;;
62123;SDS011;48110;47.532;19.078;2023-07-22T16:55:25;3.22;;;1.80;;
62123;SDS011;48110;47.532;19.078;2023-07-22T16:58:28;2.95;;;1.33;;
62123;SDS011;48110;47.532;19.078;2023-07-22T17:01:31;5.00;;;1.70;;
62123;SDS011;48110;47.532;19.078;2023-07-22T17:04:34;4.28;;;1.83;;
62123;SDS011;48110;47.532;19.078;2023-07-22T17:07:38;4.00;;;1.95;;
62123;SDS011;48110;47.532;19.078;2023-07-22T17:10:45;4.90;;;1.60;;
62123;SDS011;48110;47.532;19.078;2023-07-22T17:13:48;6.70;;;1.70;;
62123;SDS011;48110;47.532;19.078;2023-07-22T17:16:52;4.80;;;1.90;;
62123;SDS011;48110;47.532;19.078;2023-07-22T17:19:55;2.53;;;1.50;;
62123;SDS011;48110;47.532;19.078;2023-07-22T17:22:58;3.47;;;1.70;;
62123;SDS011;48110;47.532;19.078;2023-07-22T17:26:04;2.95;;;1.60;;
62123;SDS011;48110;47.532;19.078;2023-07-22T17:29:07;4.28;;;1.60;;
62123;SDS011;48110;47.532;19.078;2023-07-22T17:32:10;2.55;;;1.65;;
62123;SDS011;48110;47.532;19.078;2023-07-22T17:35:13;5.25;;;1.62;;
62123;SDS011;48110;47.532;19.078;2023-07-22T17:38:19;4.05;;;1.62;;
62123;SDS011;48110;47.532;19.078;2023-07-22T17:41:22;5.80;;;1.85;;
62123;SDS011;48110;47.532;19.078;2023-07-22T17:44:26;4.30;;;1.55;;
62123;SDS011;48110;47.532;19.078;2023-07-22T17:47:31;2.37;;;1.70;;
62123;SDS011;48110;47.532;19.078;2023-07-22T17:50:34;4.00;;;1.77;;
62123;SDS011;48110;47.532;19.078;2023-07-22T17:53:37;5.18;;;1.60;;
62123;SDS011;48110;47.532;19.078;2023-07-22T17:56:40;3.03;;;2.08;;
62123;SDS011;48110;47.532;19.078;2023-07-22T17:59:50;3.53;;;1.87;;
62123;SDS011;48110;47.532;19.078;2023-07-22T18:02:53;5.45;;;1.87;;
62123;SDS011;48110;47.532;19.078;2023-07-22T18:05:57;5.62;;;1.70;;
62123;SDS011;48110;47.532;19.078;2023-07-22T18:09:00;5.90;;;1.48;;
62123;SDS011;48110;47.532;19.078;2023-07-22T18:12:03;4.35;;;1.80;;
62123;SDS011;48110;47.532;19.078;2023-07-22T18:15:07;2.92;;;1.70;;
62123;SDS011;48110;47.532;19.078;2023-07-22T18:18:10;4.25;;;1.77;;
62123;SDS011;48110;47.532;19.078;2023-07-22T18:21:14;2.10;;;1.70;;